Tuesday, February 20, 2018, 10:37 AM EST
Back to Local

KEEN, Keene, Dillant-hopkins Airport

Location: Keene, NH, United States Lat: 42.9
Local Time: 10:37 AM EST (15:37 GMT) Lon: -72.267
Time Zone: US/Eastern Elev: 488 ft

Show me the last for .
Show Decoded

2018-02-20 10:15 METAR KEEN 201515Z AUTO 00000KT 1SM BR OVC006 08/08 A3024 RMK AO2 VIS 1/4V5 CIG
                 003V007 =
2018-02-20 10:10 METAR KEEN 201510Z AUTO 00000KT 1/2SM FG OVC006 08/08 A3025 RMK AO2 VIS 1/4V5
                 CIG 003V007 =
2018-02-20 09:56 METAR KEEN 201456Z AUTO 00000KT 1SM BR OVC006 07/07 A3025 RMK AO2 VIS 1/4V5 CIG
                 001V007 SLP264 T00720072 51004 =
2018-02-20 09:54 METAR KEEN 201454Z AUTO 00000KT 3/4SM BR OVC006 07/07 A3025 RMK AO2 VIS 1/4V5
                 CIG 001V007 =
2018-02-20 09:42 METAR KEEN 201442Z AUTO 00000KT 1/4SM FG OVC006 07/07 A3025 RMK AO2 =
2018-02-20 09:37 METAR KEEN 201437Z AUTO 00000KT 3/4SM BR OVC006 07/06 A3025 RMK AO2 VIS 1/4V3
                 CIG 001V007 =
2018-02-20 09:28 METAR KEEN 201428Z AUTO 00000KT 1 1/4SM BR OVC006 06/06 A3025 RMK AO2 CIG
                 004V007 =
2018-02-20 09:25 METAR KEEN 201425Z AUTO 00000KT 1SM BR OVC004 06/06 A3025 RMK AO2 CIG 004V007 =
2018-02-20 09:04 METAR KEEN 201404Z AUTO 00000KT 1/2SM FG OVC004 05/04 A3025 RMK AO2 =
2018-02-20 08:56 METAR KEEN 201356Z AUTO 00000KT 3/4SM BR OVC004 05/04 A3025 RMK AO2 VIS 1/2V2
                 SLP264 T00500044 =
2018-02-20 07:56 METAR KEEN 201256Z AUTO 16003KT 1/2SM FG OVC004 03/03 A3026 RMK AO2 SLP269
                 T00330033 =
2018-02-20 07:48 METAR KEEN 201248Z AUTO 00000KT 1/4SM FG OVC004 03/03 A3025 RMK AO2 =
2018-02-20 07:16 METAR KEEN 201216Z AUTO 00000KT 1/2SM FG OVC004 03/03 A3025 RMK AO2 =
2018-02-20 06:56 METAR KEEN 201156Z AUTO 00000KT 1/4SM FG OVC004 03/03 A3024 RMK AO2 SLP262 60016
                 70021 T00280028 10039 20028 53006 =
2018-02-20 06:39 METAR KEEN 201139Z AUTO 00000KT 1/4SM FG OVC004 03/03 A3024 RMK AO2 =
2018-02-20 06:14 METAR KEEN 201114Z AUTO 00000KT 1/2SM FG OVC004 03/02 A3023 RMK AO2 CIG 002V007
                 =
2018-02-20 06:07 METAR KEEN 201107Z AUTO 00000KT 1/2SM FG OVC006 03/02 A3023 RMK AO2 CIG 002V007
                 =
2018-02-20 05:56 METAR KEEN 201056Z AUTO 00000KT 1SM BR OVC006 03/02 A3022 RMK AO2 CIG 002V007
                 SLP257 T00280022 =
2018-02-20 05:44 METAR KEEN 201044Z AUTO 00000KT 1/2SM FG OVC006 03/03 A3022 RMK AO2 =
2018-02-20 05:14 METAR KEEN 201014Z AUTO 00000KT 3/4SM BR OVC006 03/03 A3021 RMK AO2 =
2018-02-20 04:56 METAR KEEN 200956Z AUTO 00000KT 1SM BR OVC006 03/03 A3021 RMK AO2 RAE12 SLP253
                 P0000 T00330028 =
2018-02-20 04:45 METAR KEEN 200945Z AUTO 00000KT 3/4SM BR OVC004 03/03 A3021 RMK AO2 RAE12 P0000
                 =
2018-02-20 04:27 METAR KEEN 200927Z AUTO 00000KT 1 3/4SM BR OVC004 03/03 A3022 RMK AO2 VIS 1V4
                 RAE12 P0000 =
2018-02-20 04:19 METAR KEEN 200919Z AUTO 17003KT 2SM BR OVC006 03/03 A3022 RMK AO2 VIS 1 1/4V4
                 RAE12 P0000 =
2018-02-20 04:05 METAR KEEN 200905Z AUTO 00000KT 1 1/4SM -RA BR OVC006 03/03 A3022 RMK AO2 P0000
                 =
2018-02-20 03:56 METAR KEEN 200856Z AUTO 00000KT 3/4SM -RA BR OVC006 03/03 A3022 RMK AO2
                 RAE08B31UPB44E46 SLP254 P0000 60016 T00330033 58006 =
2018-02-20 03:43 METAR KEEN 200843Z AUTO 16004KT 3/4SM -RA BR OVC006 03/02 A3022 RMK AO2 RAE08B31
                 CIG 002V009 P0000 =
2018-02-20 03:31 METAR KEEN 200831Z AUTO 00000KT 1SM -RA BR OVC006 03/03 A3022 RMK AO2 RAE08B31
                 CIG 002V008 P0000 =
2018-02-20 03:18 METAR KEEN 200818Z AUTO 00000KT 3/4SM BR BKN004 OVC009 03/03 A3022 RMK AO2 RAE08
                 CIG 001V007 P0000 =
2018-02-20 02:56 METAR KEEN 200756Z AUTO 00000KT 1SM -RA BR OVC009 03/03 A3023 RMK AO2 CIG
                 008V011 SLP257 P0005 T00330028 =
2018-02-20 02:37 METAR KEEN 200737Z AUTO 00000KT 3/4SM -RA BR OVC009 03/03 A3022 RMK AO2 P0004 =
2018-02-20 02:27 METAR KEEN 200727Z AUTO 00000KT 1SM RA BR OVC009 03/03 A3023 RMK AO2 P0001 =
2018-02-20 01:56 METAR KEEN 200656Z AUTO 22003KT 3/4SM -RA BR OVC009 04/03 A3023 RMK AO2 CIG
                 008V012 SLP259 P0011 T00390033 =
2018-02-20 01:41 METAR KEEN 200641Z AUTO 00000KT 1SM RA BR OVC011 04/03 A3024 RMK AO2 VIS 1/2V4
                 P0008 =
2018-02-20 01:28 METAR KEEN 200628Z AUTO 19003KT 2SM -RA BR OVC011 03/03 A3023 RMK AO2 VIS 1V5
                 P0005 =
2018-02-20 01:21 METAR KEEN 200621Z AUTO 00000KT 3SM RA BR OVC011 03/03 A3023 RMK AO2 P0005 =
2018-02-20 01:11 METAR KEEN 200611Z AUTO 00000KT 1 3/4SM RA BR OVC011 03/02 A3024 RMK AO2 VIS 1V4
                 P0001 =
2018-02-20 01:07 METAR KEEN 200607Z AUTO 00000KT 3SM -RA BR BKN011 OVC015 03/02 A3024 RMK AO2
                 P0000 =
2018-02-20 00:56 METAR KEEN 200556Z AUTO 03003KT 1 1/4SM -RA BR BKN011 BKN016 OVC043 04/03 A3024
                 RMK AO2 VIS 3/4V4 RAB56 SLP260 P0000 60005 T00390028 10050 20033 58005 =
2018-02-20 00:54 METAR KEEN 200554Z AUTO 02004KT 1 3/4SM BR BKN011 BKN016 OVC043 04/03 A3024 RMK
                 AO2 VIS 3/4V5 =
2018-02-20 00:38 METAR KEEN 200538Z AUTO 00000KT 10SM BKN013 OVC018 05/04 A3024 RMK AO2 =
2018-02-20 00:15 METAR KEEN 200515Z AUTO 16003KT 10SM OVC015 05/04 A3025 RMK AO2 =
2018-02-20 00:07 METAR KEEN 200507Z AUTO VRB03KT 10SM OVC013 04/04 A3025 RMK AO2 =
2018-02-19 23:56 METAR KEEN 200456Z AUTO 19003KT 10SM OVC017 05/04 A3025 RMK AO2 RAE01 SLP264
                 P0000 T00500044 400721106 =
2018-02-19 23:43 METAR KEEN 200443Z AUTO 19005KT 9SM BKN015 OVC019 04/04 A3025 RMK AO2 RAE01
                 P0000 =
2018-02-19 22:56 METAR KEEN 200356Z AUTO 18003KT 3SM -RA BR OVC013 03/03 A3025 RMK AO2
                 RAB01E13B30 SLP267 P0000 T00330028 =
2018-02-19 22:43 METAR KEEN 200343Z AUTO 00000KT 1 3/4SM -RA BR OVC013 04/03 A3027 RMK AO2 VIS
                 3/4V5 RAB01E13B30 P0000 =
2018-02-19 21:56 METAR KEEN 200256Z AUTO 19004KT 10SM OVC011 04/04 A3025 RMK AO2 RAE30 PRESFR
                 SLP266 P0001 60005 T00440039 58012 =
2018-02-19 20:56 METAR KEEN 200156Z AUTO 18005KT 10SM -RA OVC011 04/04 A3029 RMK AO2 SLP278 P0003
                 T00440039 =
2018-02-19 19:56 METAR KEEN 200056Z AUTO 18003KT 10SM -RA OVC013 04/03 A3030 RMK AO2 SLP283 P0001
                 T00440033 =
2018-02-19 19:23 METAR KEEN 200023Z AUTO 18003KT 10SM -RA OVC013 04/03 A3029 RMK AO2 P0000 =
2018-02-19 18:56 METAR KEEN 192356Z AUTO 17007KT 10SM -RA OVC015 04/02 A3029 RMK AO2 SLP277 P0000
                 60000 T00390022 10072 20033 58011 =
2018-02-19 17:56 METAR KEEN 192256Z AUTO VRB03KT 10SM -RA BKN021 OVC029 04/02 A3030 RMK AO2
                 SLP284 P0000 T00440017 =
2018-02-19 17:38 METAR KEEN 192238Z AUTO 17007KT 10SM -RA BKN024 OVC029 05/01 A3031 RMK AO2 P0000
                 =
2018-02-19 16:56 METAR KEEN 192156Z AUTO 19011G16KT 10SM -RA OVC035 06/00 A3031 RMK AO2 RAB30
                 SLP286 P0000 T00560000 TSNO =
2018-02-19 15:56 METAR KEEN 192056Z AUTO 18008KT 10SM OVC039 06/M01 A3032 RMK AO2 SLP289
                 T00611006 56015 =
2018-02-19 14:56 METAR KEEN 191956Z AUTO 19009KT 10SM OVC039 06/M01 A3033 RMK AO2 SLP293
                 T00611011 =
2018-02-19 13:56 METAR KEEN 191856Z AUTO 19014G21KT 10SM OVC039 07/M01 A3033 RMK AO2 SLP293
                 T00721011 =
2018-02-19 12:56 METAR KEEN 191756Z AUTO 19012G21KT 10SM SCT110 07/M02 A3036 RMK AO2 SLP303
                 T00721022 10072 21106 56038 =
2018-02-19 11:56 METAR KEEN 191656Z AUTO 20017G22KT 10SM CLR 06/M02 A3040 RMK AO2 SLP315
                 T00611022 =
2018-02-19 10:56 METAR KEEN 191556Z AUTO 19015KT 10SM SCT025 05/M01 A3043 RMK AO2 SLP325
                 T00501011 =

Support USWX by starting your Amazon purchase here.